Ingelmunster, Belgium
Current Conditions -  °F | °C
As of 7:30 AM on Monday 24 Nov 2014 (Local Time) from LFQQ Reporting Station
Clear Clear  
Wind Chill: 41°   Ceiling: Unl
Heat Index: 45°   Visibility: 6mi
Dew Point: 43°   Wind: 7mph
Humidity: 93%   Direction: 350°N
Pressure: 30.21"   Gusts: NA
Location:  50.92°N, 3.26°E
Report Text: LFQQ 240630Z 35006KT CAVOK 07/06 Q1023 NOSIG
Loading
Personal Weather Stations






























Interactive Weather Map New forecast layout! Learn more

10-Day Weather Forecast

Advertisements
Track Severe Weather on mobile